createdAt,value
2023-05-07T00:02:04.954Z,67.30
2023-05-07T00:04:37.803Z,67.50
2023-05-07T00:07:07.684Z,67.50
2023-05-07T00:09:35.825Z,67.90
2023-05-07T00:12:04.073Z,67.80
2023-05-07T00:14:32.162Z,67.80
2023-05-07T00:17:00.307Z,67.80
2023-05-07T00:19:28.488Z,67.90
2023-05-07T00:21:57.092Z,67.90
2023-05-07T00:24:26.930Z,68.00
2023-05-07T00:26:55.088Z,68.20
2023-05-07T00:29:23.174Z,68.20
2023-05-07T00:31:52.110Z,68.20
2023-05-07T00:34:21.184Z,68.30
2023-05-07T00:36:49.260Z,68.10
2023-05-07T00:39:17.527Z,68.00
2023-05-07T00:41:47.280Z,68.10
2023-05-07T00:44:15.637Z,68.10
2023-05-07T00:46:43.866Z,68.00
2023-05-07T00:49:12.530Z,68.00
2023-05-07T00:51:40.676Z,68.00
2023-05-07T00:54:09.617Z,68.00
2023-05-07T00:56:38.264Z,68.00
2023-05-07T00:59:08.060Z,68.00
2023-05-07T01:01:36.261Z,68.00
2023-05-07T01:04:04.685Z,67.90
2023-05-07T01:06:34.635Z,67.90
2023-05-07T01:09:05.627Z,68.00
2023-05-07T01:11:34.046Z,67.90
2023-05-07T01:14:02.661Z,67.90
2023-05-07T01:16:32.276Z,67.90
2023-05-07T01:19:00.758Z,68.10
2023-05-07T01:21:31.461Z,68.00
2023-05-07T01:24:01.210Z,68.20
2023-05-07T01:26:29.352Z,68.30
2023-05-07T01:28:57.397Z,68.30
2023-05-07T01:31:26.413Z,68.40
2023-05-07T01:33:56.170Z,68.50
2023-05-07T01:36:27.227Z,68.50
2023-05-07T01:38:55.872Z,68.60
2023-05-07T01:41:25.788Z,68.50
2023-05-07T01:43:54.522Z,68.70
2023-05-07T01:46:23.327Z,68.70
2023-05-07T01:48:53.172Z,68.80
2023-05-07T01:51:23.199Z,69.00
2023-05-07T01:53:52.046Z,69.00
2023-05-07T01:56:22.011Z,68.90
2023-05-07T01:58:52.756Z,69.00
2023-05-07T02:01:20.899Z,69.20
2023-05-07T02:03:49.459Z,69.00
2023-05-07T02:06:17.831Z,69.10
2023-05-07T02:08:45.913Z,69.70
2023-05-07T02:11:14.318Z,70.20
2023-05-07T02:13:42.432Z,70.60
2023-05-07T02:16:12.028Z,70.80
2023-05-07T02:18:40.116Z,71.40
2023-05-07T02:21:08.171Z,71.40
2023-05-07T02:23:36.245Z,71.50
2023-05-07T02:26:04.344Z,71.30
2023-05-07T02:28:32.469Z,71.20
2023-05-07T02:31:01.598Z,71.20
2023-05-07T02:33:31.683Z,71.10
2023-05-07T02:36:06.940Z,71.30
2023-05-07T02:38:35.066Z,71.00
2023-05-07T02:41:03.519Z,71.00
2023-05-07T02:43:32.153Z,71.00
2023-05-07T02:46:04.985Z,70.90
2023-05-07T02:48:34.643Z,71.20
2023-05-07T02:51:03.372Z,70.90
2023-05-07T02:53:31.571Z,70.80
2023-05-07T02:56:00.890Z,70.80
2023-05-07T02:58:29.610Z,70.80
2023-05-07T03:00:57.771Z,70.80
2023-05-07T03:03:25.928Z,70.80
2023-05-07T03:05:55.546Z,70.70
2023-05-07T03:08:23.667Z,70.90
2023-05-07T03:10:51.794Z,70.90
2023-05-07T03:13:20.063Z,71.00
2023-05-07T03:15:48.182Z,71.10
2023-05-07T03:18:16.532Z,71.20
2023-05-07T03:20:44.746Z,71.20
2023-05-07T03:23:14.295Z,71.20
2023-05-07T03:25:42.453Z,71.40
2023-05-07T03:28:10.530Z,71.20
2023-05-07T03:30:38.709Z,71.20
2023-05-07T03:33:06.877Z,71.20
2023-05-07T03:35:34.974Z,71.20
2023-05-07T03:38:04.313Z,71.10
2023-05-07T03:40:33.840Z,71.30
2023-05-07T03:43:02.550Z,71.40
2023-05-07T03:45:30.628Z,71.30
2023-05-07T03:47:58.803Z,71.30
2023-05-07T03:50:27.048Z,71.40
2023-05-07T03:52:55.197Z,71.60
2023-05-07T03:55:23.890Z,71.70
2023-05-07T03:57:53.325Z,72.00
2023-05-07T04:00:22.604Z,72.10
2023-05-07T04:02:50.884Z,72.20
2023-05-07T04:05:19.061Z,72.20
2023-05-07T04:07:47.172Z,72.30
2023-05-07T04:10:15.556Z,72.50
2023-05-07T04:12:43.649Z,72.80
2023-05-07T04:15:13.516Z,72.90
2023-05-07T04:17:42.482Z,73.20
2023-05-07T04:20:12.116Z,73.10
2023-05-07T04:22:40.429Z,73.90
2023-05-07T04:25:10.118Z,73.10
2023-05-07T04:27:38.670Z,73.40
2023-05-07T04:30:08.114Z,73.60
2023-05-07T04:32:38.440Z,73.90
2023-05-07T04:35:07.379Z,74.20
2023-05-07T04:37:36.069Z,74.10
2023-05-07T04:40:05.225Z,74.30
2023-05-07T04:42:33.309Z,74.40
2023-05-07T04:45:02.146Z,74.30
2023-05-07T04:47:30.256Z,74.60
2023-05-07T04:49:59.940Z,74.80
2023-05-07T04:52:28.044Z,75.00
2023-05-07T04:54:56.184Z,75.10
2023-05-07T04:57:24.395Z,75.20
2023-05-07T04:59:52.477Z,75.60
2023-05-07T05:02:20.880Z,75.80
2023-05-07T05:04:49.151Z,76.00
2023-05-07T05:07:18.656Z,76.10
2023-05-07T05:09:46.874Z,76.30
2023-05-07T05:12:14.943Z,76.50
2023-05-07T05:14:43.908Z,76.50
2023-05-07T05:17:12.146Z,76.70
2023-05-07T05:19:40.280Z,77.00
2023-05-07T05:22:08.337Z,77.10
2023-05-07T05:24:38.084Z,77.10
2023-05-07T05:27:06.548Z,77.40
2023-05-07T05:29:34.657Z,77.40
2023-05-07T05:32:02.828Z,77.40
2023-05-07T05:34:30.955Z,77.40
2023-05-07T05:36:59.075Z,77.50
2023-05-07T05:39:27.232Z,77.60
2023-05-07T05:41:56.669Z,77.80
2023-05-07T05:44:24.757Z,77.90
2023-05-07T05:46:52.902Z,77.90
2023-05-07T05:49:20.999Z,77.90
2023-05-07T05:51:49.066Z,78.10
2023-05-07T05:54:17.274Z,78.20
2023-05-07T05:56:45.615Z,77.90
2023-05-07T05:59:15.256Z,77.90
2023-05-07T06:01:43.434Z,78.20
2023-05-07T06:04:11.557Z,78.10
2023-05-07T06:06:39.661Z,78.00
2023-05-07T06:09:07.740Z,78.00
2023-05-07T06:11:35.984Z,78.10
2023-05-07T06:14:04.094Z,78.20
2023-05-07T06:16:33.618Z,78.30
2023-05-07T06:19:01.707Z,78.80
2023-05-07T06:21:29.824Z,78.70
2023-05-07T06:23:57.868Z,78.70
2023-05-07T06:26:26.381Z,78.80
2023-05-07T06:28:54.452Z,79.00
2023-05-07T06:31:22.822Z,78.80
2023-05-07T06:33:52.501Z,78.70
2023-05-07T06:36:20.556Z,78.60
2023-05-07T06:38:48.696Z,78.50
2023-05-07T06:41:16.781Z,78.50
2023-05-07T06:43:44.858Z,78.60
2023-05-07T06:46:12.950Z,78.40
2023-05-07T06:48:41.041Z,78.40
2023-05-07T06:51:10.472Z,78.10
2023-05-07T06:53:38.557Z,77.90
2023-05-07T06:56:07.148Z,77.90
2023-05-07T06:58:35.426Z,77.90
2023-05-07T07:01:03.533Z,78.10
2023-05-07T07:03:32.232Z,78.00
2023-05-07T07:06:00.339Z,77.80
2023-05-07T07:08:29.784Z,77.70
2023-05-07T07:10:57.907Z,77.90
2023-05-07T07:13:26.187Z,77.70
2023-05-07T07:15:54.918Z,77.80
2023-05-07T07:18:23.102Z,78.10
2023-05-07T07:20:51.287Z,77.70
2023-05-07T07:23:19.410Z,77.40
2023-05-07T07:25:49.375Z,77.20
2023-05-07T07:28:17.464Z,76.90
2023-05-07T07:30:45.644Z,76.90
2023-05-07T07:33:13.943Z,76.90
2023-05-07T07:35:42.636Z,76.80
2023-05-07T07:38:10.817Z,76.70
2023-05-07T07:40:38.991Z,76.40
2023-05-07T07:43:08.555Z,76.10
2023-05-07T07:45:36.990Z,75.30
2023-05-07T07:48:05.666Z,75.00
2023-05-07T07:50:44.296Z,74.90
2023-05-07T07:53:13.074Z,74.60
2023-05-07T07:55:41.781Z,74.00
2023-05-07T07:58:11.211Z,74.00
2023-05-07T08:00:39.324Z,73.90
2023-05-07T08:03:08.471Z,73.60
2023-05-07T08:05:37.303Z,73.30
2023-05-07T08:08:05.880Z,73.30
2023-05-07T08:10:35.866Z,73.00
2023-05-07T08:13:04.974Z,72.80
2023-05-07T08:15:34.706Z,72.60
2023-05-07T08:18:04.044Z,72.30
2023-05-07T08:20:32.290Z,72.00
2023-05-07T08:23:00.453Z,71.90
2023-05-07T08:25:28.541Z,72.00
2023-05-07T08:27:56.605Z,72.00
2023-05-07T08:30:24.670Z,71.50
2023-05-07T08:32:54.148Z,71.60
2023-05-07T08:35:22.480Z,71.60
2023-05-07T08:37:50.647Z,71.90
2023-05-07T08:40:19.155Z,71.70
2023-05-07T08:42:51.242Z,71.50
2023-05-07T08:45:21.180Z,70.80
2023-05-07T08:47:52.730Z,70.50
2023-05-07T08:50:22.981Z,70.30
2023-05-07T08:52:51.171Z,70.30
2023-05-07T08:55:20.579Z,70.00
2023-05-07T08:57:49.457Z,69.40
2023-05-07T09:00:19.169Z,69.10
2023-05-07T09:02:47.417Z,68.60
2023-05-07T09:05:15.636Z,68.10
2023-05-07T09:07:45.510Z,68.30
2023-05-07T09:10:14.442Z,67.80
2023-05-07T09:12:42.628Z,67.70
2023-05-07T09:15:11.880Z,67.50
2023-05-07T09:17:42.205Z,67.50
2023-05-07T09:20:11.389Z,67.10
2023-05-07T09:22:39.988Z,67.30
2023-05-07T09:25:11.356Z,67.20
2023-05-07T09:27:39.868Z,66.70
2023-05-07T09:30:09.351Z,66.30
2023-05-07T09:32:39.159Z,66.00
2023-05-07T09:35:08.636Z,65.80
2023-05-07T09:37:37.665Z,65.50
2023-05-07T09:40:07.795Z,65.20
2023-05-07T09:42:37.362Z,64.80
2023-05-07T09:45:08.525Z,64.10
2023-05-07T09:47:41.012Z,63.80
2023-05-07T09:50:12.677Z,63.80
2023-05-07T09:52:42.815Z,63.90
2023-05-07T09:55:12.119Z,64.00
2023-05-07T09:57:44.106Z,63.50
2023-05-07T10:00:14.071Z,63.10
2023-05-07T10:02:49.027Z,63.40
2023-05-07T10:05:17.542Z,63.60
2023-05-07T10:07:46.743Z,62.80
2023-05-07T10:10:16.406Z,62.40
2023-05-07T10:12:46.082Z,61.90
2023-05-07T10:15:15.467Z,61.20
2023-05-07T10:17:44.013Z,61.10
2023-05-07T10:20:12.748Z,60.70
2023-05-07T10:22:43.993Z,60.50
2023-05-07T10:25:18.737Z,59.60
2023-05-07T10:27:50.368Z,59.30
2023-05-07T10:30:30.718Z,58.20
2023-05-07T10:33:07.837Z,57.90
2023-05-07T10:35:42.873Z,57.80
2023-05-07T10:38:11.364Z,56.90
2023-05-07T10:40:39.546Z,57.90
2023-05-07T10:43:10.840Z,57.10
2023-05-07T10:45:39.328Z,55.70
2023-05-07T10:50:47.512Z,55.30
2023-05-07T10:53:36.411Z,56.20
2023-05-07T10:56:30.325Z,55.10
2023-05-07T10:59:34.784Z,55.40
2023-05-07T11:02:05.197Z,55.70
2023-05-07T11:04:36.032Z,56.20
2023-05-07T11:07:26.965Z,55.70
2023-05-07T11:10:16.567Z,54.00
2023-05-07T11:12:51.927Z,54.70
2023-05-07T11:15:45.225Z,53.90
2023-05-07T11:18:15.105Z,54.40
2023-05-07T11:20:54.692Z,54.60
2023-05-07T11:24:08.640Z,54.30
2023-05-07T11:26:46.934Z,54.50
2023-05-07T11:29:21.897Z,56.00
2023-05-07T11:31:53.438Z,54.70
2023-05-07T11:34:25.320Z,54.80
2023-05-07T11:36:54.221Z,54.60
2023-05-07T11:39:33.934Z,55.10
2023-05-07T11:42:03.094Z,54.20
2023-05-07T11:44:47.672Z,55.00
2023-05-07T11:47:21.878Z,54.40
2023-05-07T11:49:51.462Z,54.40
2023-05-07T11:52:21.242Z,54.90
2023-05-07T11:54:51.858Z,54.30
2023-05-07T11:57:19.993Z,54.70
2023-05-07T11:59:49.092Z,54.70
2023-05-07T12:02:17.582Z,54.30
2023-05-07T12:04:47.158Z,53.80
2023-05-07T12:07:15.807Z,54.00
2023-05-07T12:09:44.031Z,54.40
2023-05-07T12:12:12.313Z,54.40
2023-05-07T12:14:42.054Z,54.20
2023-05-07T12:17:10.865Z,54.40
2023-05-07T12:19:40.025Z,55.20
2023-05-07T12:22:10.269Z,55.40
2023-05-07T12:24:46.682Z,54.10
2023-05-07T12:27:15.924Z,54.10
2023-05-07T12:29:47.345Z,53.60
2023-05-07T12:32:17.036Z,52.80
2023-05-07T12:34:45.995Z,52.10
2023-05-07T12:37:16.005Z,51.70
2023-05-07T12:39:47.208Z,52.00
2023-05-07T12:42:18.153Z,51.40
2023-05-07T12:44:48.397Z,51.50
2023-05-07T12:47:17.449Z,51.00
2023-05-07T12:49:47.326Z,50.60
2023-05-07T12:52:16.976Z,50.20
2023-05-07T12:54:47.019Z,49.40
2023-05-07T12:57:15.087Z,49.20
2023-05-07T12:59:43.846Z,48.60
2023-05-07T13:02:12.120Z,48.80
2023-05-07T13:04:40.543Z,48.60
2023-05-07T13:07:08.764Z,48.00
2023-05-07T13:09:39.371Z,47.70
2023-05-07T13:12:08.148Z,47.10
2023-05-07T13:14:36.457Z,47.50
2023-05-07T13:17:04.584Z,47.60
2023-05-07T13:19:32.686Z,47.30
2023-05-07T13:22:01.052Z,47.20
2023-05-07T13:24:29.205Z,47.00
2023-05-07T13:26:58.622Z,46.90
2023-05-07T13:29:30.976Z,46.70
2023-05-07T13:31:59.372Z,47.50
2023-05-07T13:34:27.568Z,47.30
2023-05-07T13:36:56.195Z,47.60
2023-05-07T13:39:24.396Z,47.60
2023-05-07T13:41:52.512Z,47.90
2023-05-07T13:44:22.289Z,47.60
2023-05-07T13:46:50.388Z,47.10
2023-05-07T13:49:18.459Z,47.20
2023-05-07T13:51:46.564Z,47.00
2023-05-07T13:54:14.635Z,47.00
2023-05-07T13:56:42.754Z,47.20
2023-05-07T13:59:10.837Z,47.40
2023-05-07T14:01:40.317Z,46.90
2023-05-07T14:04:08.846Z,47.10
2023-05-07T14:06:36.986Z,46.60
2023-05-07T14:09:05.254Z,46.40
2023-05-07T14:11:34.125Z,46.50
2023-05-07T14:14:04.179Z,46.60
2023-05-07T14:16:32.329Z,46.80
2023-05-07T14:19:01.876Z,46.40
2023-05-07T14:21:30.009Z,46.00
2023-05-07T14:23:58.520Z,45.60
2023-05-07T14:26:28.064Z,45.00
2023-05-07T14:28:58.292Z,45.20
2023-05-07T14:31:26.658Z,44.70
2023-05-07T14:33:54.819Z,45.00
2023-05-07T14:36:26.982Z,45.50
2023-05-07T14:38:55.881Z,45.80
2023-05-07T14:41:24.639Z,46.50
2023-05-07T14:43:52.849Z,46.60
2023-05-07T14:46:21.262Z,46.90
2023-05-07T14:48:49.603Z,46.90
2023-05-07T14:51:17.728Z,46.80
2023-05-07T14:53:47.225Z,47.20
2023-05-07T14:56:15.338Z,47.40
2023-05-07T14:58:43.530Z,47.90
2023-05-07T15:01:11.710Z,47.90
2023-05-07T15:03:40.086Z,48.00
2023-05-07T15:06:08.401Z,48.30
2023-05-07T15:08:36.529Z,48.80
2023-05-07T15:11:06.011Z,48.90
2023-05-07T15:13:34.140Z,48.90
2023-05-07T15:16:02.246Z,48.90
2023-05-07T15:18:30.462Z,49.10
2023-05-07T15:20:59.170Z,49.20
2023-05-07T15:23:27.288Z,49.50
2023-05-07T15:25:55.420Z,50.00
2023-05-07T15:28:25.524Z,50.30
2023-05-07T15:30:56.152Z,50.50
2023-05-07T15:33:24.497Z,50.50
2023-05-07T15:35:52.694Z,50.60
2023-05-07T15:38:20.947Z,50.70
2023-05-07T15:40:49.032Z,50.90
2023-05-07T15:43:17.152Z,50.60
2023-05-07T15:45:46.890Z,50.60
2023-05-07T15:48:14.987Z,51.20
2023-05-07T15:50:43.283Z,51.10
2023-05-07T15:53:13.692Z,51.20
2023-05-07T15:55:43.143Z,51.30
2023-05-07T15:58:11.344Z,51.50
2023-05-07T16:00:41.296Z,51.80
2023-05-07T16:03:10.945Z,51.80
2023-05-07T16:05:39.206Z,52.10
2023-05-07T16:08:07.482Z,52.10
2023-05-07T16:10:35.896Z,52.70
2023-05-07T16:13:04.135Z,52.40
2023-05-07T16:15:32.300Z,52.80
2023-05-07T16:18:00.621Z,52.80
2023-05-07T16:20:31.147Z,52.80
2023-05-07T16:22:59.367Z,53.20
2023-05-07T16:25:27.581Z,53.30
2023-05-07T16:27:56.020Z,53.30
2023-05-07T16:30:24.178Z,53.40
2023-05-07T16:32:52.371Z,53.60
2023-05-07T16:35:20.728Z,54.00
2023-05-07T16:37:50.237Z,53.80
2023-05-07T16:40:18.439Z,53.90
2023-05-07T16:42:46.522Z,53.80
2023-05-07T16:45:14.879Z,53.80
2023-05-07T16:47:43.287Z,53.70
2023-05-07T16:50:11.998Z,53.50
2023-05-07T16:52:40.164Z,53.50
2023-05-07T16:55:10.029Z,53.70
2023-05-07T16:57:38.214Z,54.20
2023-05-07T17:00:07.853Z,54.30
2023-05-07T17:02:36.306Z,54.20
2023-05-07T17:05:06.235Z,54.50
2023-05-07T17:07:34.491Z,54.50
2023-05-07T17:10:03.365Z,54.80
2023-05-07T17:12:34.471Z,54.80
2023-05-07T17:15:02.801Z,54.90
2023-05-07T17:17:30.928Z,55.00
2023-05-07T17:20:00.060Z,55.00
2023-05-07T17:22:28.278Z,55.20
2023-05-07T17:24:56.394Z,55.10
2023-05-07T17:27:24.563Z,55.00
2023-05-07T17:29:54.146Z,55.30
2023-05-07T17:32:22.321Z,55.40
2023-05-07T17:34:50.645Z,55.40
2023-05-07T17:37:18.851Z,55.50
2023-05-07T17:39:46.974Z,55.70
2023-05-07T17:42:15.045Z,55.80
2023-05-07T17:44:43.121Z,55.90
2023-05-07T17:47:14.209Z,56.10
2023-05-07T17:49:42.397Z,56.20
2023-05-07T17:52:11.572Z,56.30
2023-05-07T17:54:39.604Z,56.40
2023-05-07T17:57:07.682Z,56.70
2023-05-07T17:59:35.815Z,56.70
2023-05-07T18:02:03.882Z,56.80
2023-05-07T18:04:33.331Z,57.00
2023-05-07T18:07:01.470Z,57.10
2023-05-07T18:09:29.546Z,57.10
2023-05-07T18:11:57.711Z,57.00
2023-05-07T18:14:26.146Z,56.90
2023-05-07T18:16:55.171Z,56.90
2023-05-07T18:19:23.269Z,57.00
2023-05-07T18:21:55.257Z,56.90
2023-05-07T18:24:23.338Z,57.10
2023-05-07T18:26:51.385Z,57.30
2023-05-07T18:29:19.535Z,57.40
2023-05-07T18:31:47.693Z,57.70
2023-05-07T18:34:15.784Z,57.70
2023-05-07T18:36:44.080Z,57.60
2023-05-07T18:39:13.591Z,57.60
2023-05-07T18:41:42.953Z,57.60
2023-05-07T18:44:11.006Z,57.60
2023-05-07T18:46:39.131Z,57.60
2023-05-07T18:49:07.310Z,57.70
2023-05-07T18:51:35.552Z,57.90
2023-05-07T18:54:03.619Z,57.90
2023-05-07T18:56:33.060Z,57.80
2023-05-07T18:59:01.173Z,58.00
2023-05-07T19:01:29.420Z,58.10
2023-05-07T19:03:57.858Z,58.20
2023-05-07T19:06:26.221Z,58.40
2023-05-07T19:08:54.350Z,58.30
2023-05-07T19:11:22.584Z,58.20
2023-05-07T19:13:52.153Z,58.30
2023-05-07T19:16:20.446Z,58.50
2023-05-07T19:18:49.529Z,58.40
2023-05-07T19:21:17.742Z,58.50
2023-05-07T19:23:46.576Z,58.60
2023-05-07T19:26:14.669Z,58.60
2023-05-07T19:28:45.885Z,58.80
2023-05-07T19:31:26.973Z,59.10
2023-05-07T19:33:55.555Z,59.40
2023-05-07T19:36:23.686Z,59.20
2023-05-07T19:38:53.294Z,59.50
2023-05-07T19:41:22.143Z,59.60
2023-05-07T19:43:50.369Z,59.70
2023-05-07T19:46:18.577Z,59.80
2023-05-07T19:48:48.179Z,59.80
2023-05-07T19:51:16.232Z,60.20
2023-05-07T19:53:45.047Z,60.20
2023-05-07T19:56:13.355Z,60.40
2023-05-07T19:58:41.758Z,60.40
2023-05-07T20:01:10.273Z,60.40
2023-05-07T20:03:38.546Z,60.40
2023-05-07T20:06:08.181Z,60.60
2023-05-07T20:08:36.289Z,60.80
2023-05-07T20:11:04.389Z,60.90
2023-05-07T20:13:32.500Z,61.10
2023-05-07T20:16:00.942Z,61.10
2023-05-07T20:18:30.049Z,61.20
2023-05-07T20:20:58.571Z,61.30
2023-05-07T20:23:28.060Z,61.30
2023-05-07T20:25:56.169Z,61.60
2023-05-07T20:28:24.438Z,61.80
2023-05-07T20:30:52.635Z,61.70
2023-05-07T20:33:20.840Z,61.80
2023-05-07T20:35:49.052Z,62.00
2023-05-07T20:38:17.229Z,62.10
2023-05-07T20:40:46.736Z,62.20
2023-05-07T20:43:14.819Z,62.60
2023-05-07T20:45:43.202Z,62.30
2023-05-07T20:48:11.362Z,62.60
2023-05-07T20:50:39.465Z,63.00
2023-05-07T20:53:07.544Z,63.30
2023-05-07T20:55:35.642Z,63.70
2023-05-07T20:58:05.114Z,64.20
2023-05-07T21:00:33.172Z,64.50
2023-05-07T21:03:01.284Z,64.70
2023-05-07T21:05:29.387Z,64.60
2023-05-07T21:07:57.800Z,66.10
2023-05-07T21:10:25.944Z,65.40
2023-05-07T21:12:54.204Z,65.80
2023-05-07T21:15:23.938Z,66.20
2023-05-07T21:17:52.014Z,66.00
2023-05-07T21:20:20.293Z,65.90
2023-05-07T21:22:48.346Z,66.00
2023-05-07T21:25:16.590Z,65.90
2023-05-07T21:27:44.745Z,65.70
2023-05-07T21:30:14.656Z,65.80
2023-05-07T21:32:44.302Z,65.80
2023-05-07T21:35:12.692Z,65.40
2023-05-07T21:37:40.761Z,65.40
2023-05-07T21:40:09.967Z,65.40
2023-05-07T21:42:38.212Z,65.40
2023-05-07T21:45:07.131Z,65.40
2023-05-07T21:47:35.251Z,65.20
2023-05-07T21:50:05.174Z,65.40
2023-05-07T21:52:33.322Z,65.90
2023-05-07T21:55:01.451Z,65.60
2023-05-07T21:57:29.601Z,65.90
2023-05-07T21:59:57.740Z,65.80
2023-05-07T22:02:26.351Z,65.80
2023-05-07T22:04:54.569Z,65.90
2023-05-07T22:07:24.012Z,65.80
2023-05-07T22:09:52.244Z,66.10
2023-05-07T22:12:20.951Z,66.20
2023-05-07T22:14:49.196Z,66.50
2023-05-07T22:17:17.303Z,66.40
2023-05-07T22:19:45.375Z,66.50
2023-05-07T22:22:13.445Z,66.80
2023-05-07T22:24:43.220Z,66.90
2023-05-07T22:27:11.315Z,67.20
2023-05-07T22:29:39.412Z,67.10
2023-05-07T22:32:08.328Z,67.20
2023-05-07T22:34:37.419Z,67.30
2023-05-07T22:37:05.510Z,67.20
2023-05-07T22:39:35.112Z,67.30
2023-05-07T22:42:04.786Z,67.10
2023-05-07T22:44:32.819Z,67.40
2023-05-07T22:47:00.877Z,67.30
2023-05-07T22:49:29.220Z,67.30
2023-05-07T22:51:57.380Z,67.50
2023-05-07T22:54:26.108Z,67.40
2023-05-07T22:56:54.253Z,67.50
2023-05-07T22:59:23.674Z,67.30
2023-05-07T23:01:51.757Z,67.40
2023-05-07T23:04:19.864Z,67.30
2023-05-07T23:06:47.953Z,67.30
2023-05-07T23:09:16.420Z,67.40
2023-05-07T23:11:44.623Z,67.30
2023-05-07T23:14:12.787Z,67.30
2023-05-07T23:16:42.737Z,67.40
2023-05-07T23:19:11.596Z,67.50
2023-05-07T23:21:39.695Z,67.70
2023-05-07T23:24:08.377Z,67.60
2023-05-07T23:26:36.535Z,67.60
2023-05-07T23:29:04.661Z,67.60
2023-05-07T23:31:32.847Z,67.70
2023-05-07T23:34:02.504Z,67.70
2023-05-07T23:36:32.586Z,67.80
2023-05-07T23:39:00.684Z,67.80
2023-05-07T23:41:28.768Z,67.80
2023-05-07T23:43:56.902Z,67.70
2023-05-07T23:46:25.330Z,67.60
2023-05-07T23:48:53.466Z,67.50
2023-05-07T23:51:22.968Z,67.60
2023-05-07T23:53:51.114Z,67.80
2023-05-07T23:56:19.454Z,67.90
2023-05-07T23:58:47.539Z,68.00
